METAR Data
IDs: Format: Raw Decoded Include TAF

Data at: 2048 UTC 19 May 2019

KCID 191952Z 30015G22KT 10SM OVC020 14/12 A2969 RMK AO2 SLP053 T01440122
KCID 191852Z 30017KT 10SM OVC018 16/13 A2966 RMK AO2 PK WND 29028/1822 SLP042 T01560128
KCID 191752Z 28013KT 10SM OVC015 14/13 A2965 RMK AO2 SLP038 60000 T01440128 10156 20128 51022
KCID 191652Z 29012KT 10SM OVC012 14/12 A2963 RMK AO2 SLP033 T01390122 $
KCID 191552Z 29013KT 10SM OVC011 13/12 A2961 RMK AO2 RAB1456E05 SLP023 P0000 T01330117 $
KCID 191452Z 30013KT 10SM OVC013 13/13 A2958 RMK AO2 SLP015 60000 T01330128 53020 $
KCID 191352Z 28017KT 10SM OVC010 14/13 A2955 RMK AO2 CIG 008V013 SLP004 T01390128 $
KCID 191330Z 27011KT 10SM BKN009 OVC014 14/13 A2954 RMK AO2 T01440133 $
KCID 191252Z 25013KT 10SM OVC010 15/14 A2952 RMK AO2 RAE03 SLP994 P0000 T01500144 $
KCID 191249Z 24011KT 10SM OVC010 15/14 A2952 RMK AO2 RAE03 CIG 006V013 P0000 $
KCID 191205Z 20010KT 10SM BKN006 BKN070 OVC090 15/15 A2951 RMK AO2 RAE03 P0000 T01500150 $
KCID 191152Z 18008KT 7SM -RA FEW008 BKN090 OVC120 15/15 A2951 RMK AO2 SLP989 P0002 60003 70205 T01500150 10178 20150 51001 $
KCID 191052Z 24008KT 9SM -RA FEW009 BKN049 OVC090 15/15 A2950 RMK AO2 LTG DSNT SW RAB18 SLP987 P0001 T01500150 $
KCID 191024Z 20010KT 5SM -RA BR FEW007 FEW011 OVC023 16/15 A2952 RMK AO2 RAB18 P0000 T01560150 $
KCID 190952Z COR 20010KT 10SM OVC023 16/15 A2951 RMK AO2 SLP988 T01560150 $
KCID 190902Z AUTO 21009KT 10SM SCT012 BKN021 OVC028 17/16 A2950 RMK AO2 T01670156 $
KCID 190852Z AUTO 21010KT 10SM BKN011 OVC021 17/16 A2950 RMK AO2 SLP986 T01670161 56005 $
KCID 190752Z AUTO 20014G20KT 10SM BKN012 OVC023 17/17 A2951 RMK AO2 SLP988 T01720167 $
KCID 190747Z AUTO 20011KT 10SM BKN012 OVC023 17/17 A2951 RMK AO2 $
KCID 190735Z AUTO 20012KT 10SM SCT012 BKN017 OVC023 17/17 A2951 RMK AO2 T01720167 $
KCID 190652Z AUTO 19010KT 10SM BKN012 OVC020 17/17 A2952 RMK AO2 SLP990 T01720167 $
KCID 190650Z AUTO 19011KT 10SM BKN014 OVC020 17/17 A2952 RMK AO2 $
KCID 190619Z AUTO 21014KT 10SM OVC015 18/17 A2952 RMK AO2 T01780172 $
KCID 190552Z AUTO 17010KT 10SM BKN014 OVC019 18/17 A2954 RMK AO2 SLP997 60130 T01780172 10194 20161 402390083 55009 $
KCID 190550Z AUTO 18010G20KT 10SM BKN014 OVC021 18/17 A2953 RMK AO2 $
KCID 190512Z AUTO 12006KT 9SM SCT016 BKN021 OVC100 17/17 A2953 RMK AO2 T01670167 $
KCID 190452Z AUTO 10009KT 9SM FEW019 OVC110 17/17 A2953 RMK AO2 RAE15 SLP994 P0002 T01670167 $
KCID 190352Z AUTO 8SM -RA FEW033 BKN065 OVC085 17/17 A2956 RMK AO2 RAE22B49 SLP008 P0005 T01670167 $
KCID 190252Z AUTO 07009KT 5SM RA BR FEW065 BKN090 OVC110 17/17 A2957 RMK AO2 SLP013 P0015 60123 T01670167 58015 $
KCID 190152Z 01004KT 4SM +RA BR FEW031 BKN050 OVC060 17/17 A2962 RMK AO2 LTG DSNT N-SE TSE15B17E32 SLP028 P0060 T01670167 $
KCID 190142Z 34006KT 2SM +RA BR BKN040 BKN048 OVC065 17/17 A2961 RMK AO2 VIS 1 1/2V5 LTG DSNT N AND NE TSE15B17E32 P0057 T01670167 $
KCID 190132Z 34006KT 2SM VCTS +RA BR BKN038 OVC070 17/17 A2961 RMK AO2 LTG DSNT N AND NE TSE15B17E32 P0049 T01670167 $
KCID 190118Z 31005KT 1SM R09/5000VP6000FT +TSRA BR BKN031 OVC043 17/17 A2963 RMK AO2 LTG DSNT N TSE15B17 P0042 T01670167 $
KCID 190115Z 29005KT 3/4SM R09/4000VP6000FT VCTS +RA BR BKN026 OVC043 17/17 A2963 RMK AO2 LTG DSNT N TSE15 P0038 T01670167 $
KCID 190110Z 26006KT 3/4SM R09/2800VP6000FT +TSRA BR SCT022 OVC043 17/17 A2963 RMK AO2 LTG DSNT ALQDS P0028 T01670167 $
KCID 190059Z 8SM -TSRA FEW038 BKN045 OVC070 17/16 A2963 RMK AO2 LTG DSNT ALQDS P0000 T01720156
KCID 190052Z 09010KT 2SM -TSRA BR SCT041 BKN050 OVC070 18/16 A2961 RMK AO2 LTG DSNT ALQDS TSE02B12E27B36 SLP027 P0048 T01780161
KCID 190042Z VRB05KT 1 3/4SM R09/4500VP6000FT +TSRA BR BKN043 OVC070 18/17 A2963 RMK AO2 LTG DSNT ALQDS TSE02B12E27B36 P0044 T01780172
KCID 190036Z 00000KT 3SM +TSRA BR SCT046 OVC070 18/18 A2964 RMK AO2 LTG DSNT ALQDS TSE02B12E27B36 P0034 T01780178
KCID 190030Z 08005KT 2SM VCTS RA BR BKN046 OVC075 18/17 A2964 RMK AO2 VIS 1V4 LTG DSNT ALQDS TSE02B12E27 P0031 T01780172
KCID 190018Z 17003KT 1 3/4SM +TSRA BR BKN046 BKN065 OVC075 18/18 A2963 RMK AO2 LTG DSNT ALQDS TSE02B12 P0022 T01830178
KCID 190003Z 18011G17KT 2 1/2SM VCTS RA BR BKN040 BKN049 OVC080 19/18 A2962 RMK AO2 LTG DSNT ALQDS TSE02 P0008 T01890178
KCID 182352Z 19014KT 5SM -TSRA BR SCT012 BKN040 OVC050 19/18 A2962 RMK AO2 LTG DSNT ALQDS TSE35B39 SLP030 P0053 60054 T01940178 10239 20189 56006
KCID 182348Z 19012G23KT 3SM -TSRA BR SCT012 BKN022 OVC045 19/18 A2962 RMK AO2 LTG DSNT ALQDS TSE35B39 P0052
KCID 182339Z 19015G24KT 1 1/2SM R09/4000VP6000FT +TSRA BR SCT009 BKN016 OVC024 19/19 A2963 RMK AO2 LTG DSNT ALQDS TSE35B39 P0050 T01890189
KCID 182335Z 17014G20KT 2SM R09/5000VP6000FT VCTS +RA BR SCT009 BKN018 OVC033 19/19 A2963 RMK AO2 LTG DSNT ALQDS TSE35 P0042 T01940194
KCID 182331Z 18009KT 3SM TSRA BR SCT009 BKN014 OVC046 20/19 A2962 RMK AO2 LTG DSNT ALQDS P0037 T02000194
KCID 182323Z 17008KT 3SM TSRA BR FEW009 BKN024 OVC045 20/19 A2962 RMK AO2 LTG DSNT ALQDS P0033 T02000194
KCID 182310Z 18005KT 2SM +TSRA BR FEW008 BKN017 OVC039 20/20 A2964 RMK AO2 LTG DSNT S-W P0029 T02000200
KCID 182304Z 20010G25KT 1SM R09/2800VP6000FT +TSRA BR FEW008 BKN013 OVC039 20/19 A2964 RMK AO2 LTG DSNT S-W P0025 T02000194
KCID 182257Z 18013G25KT 1 3/4SM R09/2800VP6000FT +TSRA BR FEW012 BKN028 OVC090 21/19 A2964 RMK AO2 VIS 3/4V5 LTG DSNT ALQDS P0016 T02060194
KCID 182252Z 16015G23KT 7SM -TSRA SCT022 BKN039 OVC090 22/19 A2963 RMK AO2 LTG DSNT ALQDS RAB49 TSB46 SLP032 P0001 T02170194
KCID 182241Z 16011KT 10SM VCTS FEW029 SCT039 BKN090 22/19 A2962 RMK AO2 LTG DSNT S-W T02170194
KCID 182152Z 16010KT 10SM FEW028 BKN033 OVC090 23/19 A2962 RMK AO2 SLP029 T02280194
KCID 182052Z 16014G23KT 10SM SCT022 SCT027 BKN090 23/19 A2964 RMK AO2 SLP035 T02280189 51004
KCID 182049Z 16016G23KT 10SM BKN022 BKN090 23/19 A2964 RMK AO2
KCID 181952Z 17013G21KT 10SM BKN085 23/19 A2964 RMK AO2 SLP035 T02330194
KCID 181852Z 17012G23KT 10SM SCT013 22/19 A2963 RMK AO2 PK WND 16027/1753 SLP030 T02220194
KCID 181752Z 16020G26KT 10SM SCT012 21/19 A2963 RMK AO2 PK WND 16026/1751 SLP032 60018 T02110189 10217 20094 56028
KCID 181652Z 15014G24KT 9SM CLR 20/18 A2964 RMK AO2 SLP034 T02000183
KCID 181552Z 13014KT 5SM BR CLR 17/17 A2965 RMK AO2 RAE16 PRESFR SLP038 P0001 T01720167
KCID 181452Z 15007KT 4SM -RA BR FEW027 FEW046 OVC110 14/14 A2971 RMK AO2 SLP062 P0006 60017 T01390139 53003
KCID 181431Z 15007KT 4SM -RA BR SCT026 BKN045 OVC110 13/13 A2972 RMK AO2 LTG DSNT NE AND E P0005 T01280128
KCID 181416Z 13009KT 3SM VCTS RA BR SCT026 BKN095 OVC110 12/12 A2973 RMK AO2 LTG DSNT E AND SE P0005 T01220122
KCID 181352Z 11006KT 6SM -RA BR SCT055 BKN090 OVC110 12/12 A2971 RMK AO2 LTG DSNT ALQDS RAE34B41 TSB1256E15 SLP062 P0007 T01170117
KCID 181334Z 13006KT 8SM SCT038 OVC055 12/11 A2971 RMK AO2 LTG DSNT NE-SE RAE34 TSB1256E15 P0007 T01170111
KCID 181321Z 12006KT 6SM VCTS -RA BR BKN037 OVC050 11/11 A2971 RMK AO2 LTG DSNT ALQDS TSB1256E15 P0006 T01110106
KCID 181256Z 12009KT 5SM -TSRA BR SCT037 BKN046 OVC090 11/10 A2970 RMK AO2 LTG DSNT N AND NE AND S TSB56 P0000 T01060100
KCID 181252Z 12010KT 5SM RA BR FEW035 BKN046 OVC090 11/10 A2970 RMK AO2 LTG DSNT N AND S RAB30 SLP058 P0004 T01060100
KCID 181231Z 12012KT 7SM -RA SCT050 SCT070 BKN090 11/10 A2969 RMK AO2 LTG DSNT N AND S AND NW RAB30 P0001 T01110100
KCID 181152Z 11012KT 10SM FEW050 BKN065 09/08 A2970 RMK AO2 LTG DSNT W AND NW SLP059 70033 T00940083 10111 20083 58012
KCID 181052Z 11011KT 10SM CLR 08/07 A2972 RMK AO2 SLP066 T00830072
KCID 180952Z 11011KT 10SM CLR 09/08 A2975 RMK AO2 SLP077 T00890078
KCID 180852Z AUTO 11014G21KT 10SM CLR 09/08 A2974 RMK AO2 SLP072 T00890078 58009